< < Back
Terminal Aerodrome Forecast


Current Version              Previous Versions:   1  2  3  4  5  6  7  8  9  

Terminal Aerodrome Forecast

812
FTUS42 KTAE 020500
TAFABY
TAF
KABY 020520Z 0206/0306 VRB03KT P6SM FEW040
     FM021800 27006KT P6SM VCTS SCT050CB
     FM030000 VRB03KT P6SM FEW250=

Latest METAR

962
SAUS70 KWBC 021700 RRE
MTRABY
METAR KABY 021653Z 02003KT 10SM FEW047 BKN060 32/22 A3010 RMK AO2 SLP190
T03220222 PNO $


USA.gov is the U.S. government's official web portal to all federal, state and local government web resources and services.